Terminal Aerodrome Forecast
Issued by NWS Omaha/Valley, NE

Home | Current Version | Previous Version | Text Only | Print | Product List | Glossary On
Versions: 1 2 3 4 5 6 7 8 9 10 11 12 13 14 15 16 17 18 19 20 21 22 23 24 25 26 27
000
FTUS43 KOAX 311120
TAFLNK
TAF
KLNK 311120Z 3112/0112 VRB04KT P6SM SCT250
     FM312100 22007KT P6SM SCT040
      TEMPO 3122/0101 6SM -TSRA BKN040CB=

USA.gov is the U.S. government's official web portal to all federal, state and local government web resources and services.